KGUS/GUS METAR and TAF weather

Enter ICAO airport designator
Station Type Date Time Source
KGUS METAR 2021/09/25 11:56 UTC NOAA

KGUS 251156Z AUTO 30009KT 10SM FEW100 12/11 A3000 RMK AO2 DZB15E25RAB25E26 SLP161 P0000 60032 70032 T01200106 10182 20120 52025 $


Station Type Date Time Source
KGUS Decoded METAR 2021/09/25 11:56 UTC NOAA

Grissom Air Force Base / Peru, IN, United States (KGUS) 40-39N 086-09W
Sep 25, 2021 - 07:56 AM EDT / 2021.09.25 1156 UTC
Wind: from the WNW (300 degrees) at 10 MPH (9 KT):0
Visibility: 10 mile(s):0
Sky conditions: mostly clear
Precipitation last hour: A trace
Temperature: 53.6 F (12.0 C)
Dew Point: 51.1 F (10.6 C)
Relative Humidity: 91%
Pressure (altimeter): 30 in. Hg (1015 hPa)
Pressure tendency: 0.07 inches (2.5 hPa) higher than three hours ago
ob: KGUS 251156Z AUTO 30009KT 10SM FEW100 12/11 A3000 RMK AO2 DZB15E25RAB25E26 SLP161 P0000 60032 70032 T01200106 10182 20120 52025
cycle: 12

Station Type Date Time Source
KGUS TAF 2021/09/25 02:24 UTC NOAA

TAF
AMD KGUS 250215Z 2502/2603 20012G18KT 9999 SCT020 SCT100 QNH2994INS
TEMPO 2503/2505 19015G25KT 9000 -SHRA BKN015 OVC070
BECMG 2506/2507 19010G15KT 9000 -SHRA BKN015 OVC050 QNH2992INS
TEMPO 2507/2512 VRB15G25KT 4800 -TSRA BKN005CB
BECMG 2513/2514 27010G15KT 9999 NSW SKC QNH3001INS TX18/2520Z TN12/2512Z LAST NO
AMDS AFT 2503 NEXT 2513

Example: see airport list